Latest Weather Observations for Spitfire Channel

IDQ60901

Issued at 4:21 pm EST Thursday 13 August 2020 (issued every 10 minutes, with the page automatically refreshed every 10 minutes)

About weather observations | Map of Brisbane area stations | Latest observations for Brisbane area | Other Formats
Station Details ID: 040927 Name: SPITFIRE CHANNEL BEACON Lat: -27.05 Lon: 153.27 Height: 7.0 m
Data from the previous 72 hours. | See also: Recent months at Spitfire Channel
Date/Time
EST
Temp
°C
App
Temp
°C
Dew
Point
°C
Rel
Hum
%
Delta-T
°C
Wind Press
QNH
hPa
Press
MSL
hPa
Rain since
9am
mm
Dir  Spd
km/h
Gust
km/h
Spd
kts
Gust
kts
13/04:00pm - - - - - NNE 24 28 13 15 - - -
13/03:30pm - - - - - N 26 30 14 16 - - -
13/03:00pm - - - - - N 24 28 13 15 - - -
13/02:30pm - - - - - N 22 26 12 14 - - -
13/02:00pm - - - - - N 22 26 12 14 - - -
13/01:30pm - - - - - NNE 17 20 9 11 - - -
13/01:00pm - - - - - N 17 19 9 10 - - -
13/12:30pm - - - - - N 17 22 9 12 - - -
13/12:00pm - - - - - N 17 19 9 10 - - -
13/11:30am - - - - - N 17 19 9 10 - - -
13/11:00am - - - - - N 19 20 10 11 - - -
13/10:30am - - - - - N 17 20 9 11 - - -
13/10:00am - - - - - NNW 17 20 9 11 - - -
13/09:30am - - - - - NNW 19 22 10 12 - - -
13/09:00am - - - - - NNW 22 24 12 13 - - -
13/08:30am - - - - - NNW 20 24 11 13 - - -
13/08:00am - - - - - NNW 20 26 11 14 - - -
13/07:30am - - - - - NNW 22 28 12 15 - - -
13/07:00am - - - - - NNW 24 30 13 16 - - -
13/06:30am - - - - - NNW 24 28 13 15 - - -
13/06:00am - - - - - NNW 19 24 10 13 - - -
13/05:30am - - - - - NW 17 22 9 12 - - -
13/05:00am - - - - - NW 17 22 9 12 - - -
13/04:30am - - - - - NW 17 26 9 14 - - -
13/04:00am - - - - - NW 15 24 8 13 - - -
13/03:30am - - - - - NW 22 35 12 19 - - -
13/03:00am - - - - - NW 20 33 11 18 - - -
13/02:30am - - - - - NNW 30 39 16 21 - - -
13/02:00am - - - - - NNW 30 39 16 21 - - -
13/01:30am - - - - - NNW 22 30 12 16 - - -
13/01:00am - - - - - NNW 30 39 16 21 - - -
13/12:30am - - - - - NNW 28 33 15 18 - - -
13/12:00am - - - - - NNW 22 28 12 15 - - -
 
Date/Time
EST
Temp
°C
App
Temp
°C
Dew
Point
°C
Rel
Hum
%
Delta-T
°C
Wind Press
QNH
hPa
Press
MSL
hPa
Rain since
9am
mm
Dir  Spd
km/h
Gust
km/h
Spd
kts
Gust
kts
12/11:30pm - - - - - NNW 22 28 12 15 - - -
12/11:00pm - - - - - NNW 20 24 11 13 - - -
12/10:30pm - - - - - NW 11 17 6 9 - - -
12/10:00pm - - - - - NW 13 17 7 9 - - -
12/09:30pm - - - - - N 22 26 12 14 - - -
12/09:00pm - - - - - N 19 20 10 11 - - -
12/08:30pm - - - - - N 19 24 10 13 - - -
12/08:00pm - - - - - N 20 26 11 14 - - -
12/07:30pm - - - - - N 24 28 13 15 - - -
12/07:00pm - - - - - N 24 30 13 16 - - -
12/06:30pm - - - - - N 26 32 14 17 - - -
12/06:00pm - - - - - N 26 30 14 16 - - -
12/05:30pm - - - - - N 20 24 11 13 - - -
12/05:00pm - - - - - N 22 24 12 13 - - -
12/04:30pm - - - - - NNE 20 24 11 13 - - -
12/04:00pm - - - - - NNE 20 24 11 13 - - -
12/03:30pm - - - - - NNE 20 24 11 13 - - -
12/03:00pm - - - - - NE 19 20 10 11 - - -
12/02:30pm - - - - - NE 19 20 10 11 - - -
12/02:00pm - - - - - NE 15 19 8 10 - - -
12/01:30pm - - - - - NE 11 15 6 8 - - -
12/01:00pm - - - - - ENE 7 9 4 5 - - -
12/12:30pm - - - - - E 7 9 4 5 - - -
12/12:00pm - - - - - ESE 7 9 4 5 - - -
12/11:30am - - - - - SSE 9 9 5 5 - - -
12/11:00am - - - - - S 7 9 4 5 - - -
12/10:30am - - - - - SSE 9 11 5 6 - - -
12/10:00am - - - - - S 9 11 5 6 - - -
12/09:30am - - - - - S 13 15 7 8 - - -
12/09:00am - - - - - SSW 13 15 7 8 - - -
12/08:30am - - - - - SSW 15 17 8 9 - - -
12/08:00am - - - - - SW 11 15 6 8 - - -
12/07:30am - - - - - SSW 7 11 4 6 - - -
12/07:00am - - - - - SSW 11 17 6 9 - - -
12/06:30am - - - - - SSW 13 15 7 8 - - -
12/06:00am - - - - - SSE 11 13 6 7 - - -
12/05:30am - - - - - SSE 11 13 6 7 - - -
12/05:00am - - - - - SSE 11 13 6 7 - - -
12/04:30am - - - - - SSE 17 19 9 10 - - -
12/04:00am - - - - - SSE 13 17 7 9 - - -
12/03:30am - - - - - S 11 15 6 8 - - -
12/03:00am - - - - - S 13 15 7 8 - - -
12/02:30am - - - - - SSE 9 13 5 7 - - -
12/02:00am - - - - - SSW 9 13 5 7 - - -
12/01:30am - - - - - NNE 9 9 5 5 - - -
12/01:00am - - - - - E 15 17 8 9 - - -
12/12:30am - - - - - E 17 22 9 12 - - -
12/12:00am - - - - - S 2 4 1 2 - - -
 
Date/Time
EST
Temp
°C
App
Temp
°C
Dew
Point
°C
Rel
Hum
%
Delta-T
°C
Wind Press
QNH
hPa
Press
MSL
hPa
Rain since
9am
mm
Dir  Spd
km/h
Gust
km/h
Spd
kts
Gust
kts
11/11:30pm - - - - - SSE 4 6 2 3 - - -
11/11:00pm - - - - - SE 6 7 3 4 - - -
11/10:30pm - - - - - SE 13 15 7 8 - - -
11/10:00pm - - - - - SE 13 15 7 8 - - -
11/09:30pm - - - - - SE 13 17 7 9 - - -
11/09:00pm - - - - - ESE 15 19 8 10 - - -
11/08:30pm - - - - - ESE 17 19 9 10 - - -
11/08:00pm - - - - - ESE 19 20 10 11 - - -
11/07:30pm - - - - - SE 15 20 8 11 - - -
11/07:00pm - - - - - SE 15 19 8 10 - - -
11/06:30pm - - - - - ESE 17 20 9 11 - - -
11/06:00pm - - - - - ESE 20 22 11 12 - - -
11/05:30pm - - - - - SE 19 22 10 12 - - -
11/05:00pm - - - - - CALM 0 0 0 0 - - -
11/04:30pm - - - - - CALM 0 0 0 0 - - -
11/04:00pm - - - - - W 2 4 1 2 - - -
11/03:30pm - - - - - WSW 6 6 3 3 - - -
11/03:00pm - - - - - SW 6 6 3 3 - - -
11/02:30pm - - - - - SSW 6 7 3 4 - - -
11/02:00pm - - - - - S 6 7 3 4 - - -
11/01:30pm - - - - - S 7 9 4 5 - - -
11/01:00pm - - - - - SSE 13 15 7 8 - - -
11/12:30pm - - - - - S 11 15 6 8 - - -
11/12:00pm - - - - - S 11 15 6 8 - - -
11/11:30am - - - - - S 13 15 7 8 - - -
11/11:00am - - - - - S 15 17 8 9 - - -
11/10:30am - - - - - SSW 19 20 10 11 - - -
11/10:00am - - - - - SSW 22 24 12 13 - - -
11/09:30am - - - - - SSW 19 22 10 12 - - -
11/09:00am - - - - - SW 22 26 12 14 - - -
11/08:30am - - - - - SW 19 22 10 12 - - -
11/08:00am - - - - - SW 20 22 11 12 - - -
11/07:30am - - - - - SW 20 22 11 12 - - -
11/07:00am - - - - - WSW 19 20 10 11 - - -
11/06:30am - - - - - WSW 20 24 11 13 - - -
11/06:00am - - - - - WSW 20 24 11 13 - - -
11/05:30am - - - - - WSW 20 24 11 13 - - -
11/05:00am - - - - - WSW 22 26 12 14 - - -
11/04:30am - - - - - WSW 20 24 11 13 - - -
11/04:00am - - - - - WSW 24 28 13 15 - - -
11/03:30am - - - - - WSW 28 33 15 18 - - -
11/03:00am - - - - - WSW 26 30 14 16 - - -
11/02:30am - - - - - WSW 28 33 15 18 - - -
11/02:00am - - - - - WSW 26 32 14 17 - - -
11/01:30am - - - - - WSW 30 33 16 18 - - -
11/01:00am - - - - - WSW 24 30 13 16 - - -
11/12:30am - - - - - W 24 30 13 16 - - -
11/12:00am - - - - - WSW 24 30 13 16 - - -
 
Date/Time
EST
Temp
°C
App
Temp
°C
Dew
Point
°C
Rel
Hum
%
Delta-T
°C
Wind Press
QNH
hPa
Press
MSL
hPa
Rain since
9am
mm
Dir  Spd
km/h
Gust
km/h
Spd
kts
Gust
kts
10/11:30pm - - - - - WSW 26 32 14 17 - - -
10/11:00pm - - - - - WSW 28 33 15 18 - - -
10/10:30pm - - - - - WSW 28 33 15 18 - - -
10/10:00pm - - - - - WSW 26 32 14 17 - - -
10/09:30pm - - - - - WSW 24 32 13 17 - - -
10/09:00pm - - - - - WSW 26 33 14 18 - - -
10/08:30pm - - - - - WSW 24 30 13 16 - - -
10/08:00pm - - - - - WSW 24 28 13 15 - - -
10/07:30pm - - - - - WSW 28 33 15 18 - - -
10/07:00pm - - - - - WSW 32 37 17 20 - - -
10/06:30pm - - - - - WSW 26 35 14 19 - - -
10/06:00pm - - - - - WSW 35 44 19 24 - - -
10/05:30pm - - - - - WSW 37 46 20 25 - - -
10/05:00pm - - - - - SW 37 46 20 25 - - -
10/04:30pm - - - - - SW 39 48 21 26 - - -

Latest Capital City Observations: Canberra | Sydney | Melbourne | Brisbane | Adelaide | Perth | Hobart | Darwin

Other formats

Comma delimited format used in spreadsheet applications
http://www.bom.gov.au/fwo/IDQ60901/IDQ60901.94581.axf

JavaScript Object Notation format (JSON) in row-major order
http://www.bom.gov.au/fwo/IDQ60901/IDQ60901.94581.json

Data quality

Most of these data are generated automatically and are frequently updated. Quality checks on data are not normally performed. It is possible for incorrect values to appear. Refer to information at About Latest Weather Observations and please check the disclaimer before using these data.